Terminal Aerodrome Forecast
Issued by NWS Wilmington, OH

Current Version | Previous Version | Graphics & Text | Print | Product List | Glossary On
Versions: 1 2 3 4 5 6 7 8 9 10 11 12 13 14 15 16 17 18 19 20 21 22 23 24 25 26
000
FTUS41 KILN 202003 AAF
TAFCVG
TAF AMD
KCVG 202003Z 2020/2124 13007KT P6SM VCTS BKN040CB
      TEMPO 2020/2023 2SM -TSRA BR OVC012CB
     FM210600 18006KT 5SM -SHRA VCTS OVC025CB
     FM211500 19011G18KT 4SM SHRA VCTS OVC018CB
     FM211700 22012G18KT P6SM BKN025
     FM212100 25012G18KT P6SM BKN050=

USA.gov is the U.S. government's official web portal to all federal, state and local government web resources and services.